sensor_id;sensor_type;location;lat;lon;timestamp;pressure;altitude;pressure_sealevel;temperature;humidity
48644;BME280;34928;37.302;-121.984;2023-03-18T00:06:09;100956.0;;;26.65;20.50
48644;BME280;34928;37.302;-121.984;2023-03-18T00:16:12;100947.0;;;26.88;20.88
48644;BME280;34928;37.302;-121.984;2023-03-18T00:26:18;100943.0;;;26.66;20.56
48644;BME280;34928;37.302;-121.984;2023-03-18T00:36:23;100947.0;;;26.53;20.81
48644;BME280;34928;37.302;-121.984;2023-03-18T00:46:29;100945.0;;;26.71;20.89
48644;BME280;34928;37.302;-121.984;2023-03-18T00:56:34;100942.0;;;26.33;22.50
48644;BME280;34928;37.302;-121.984;2023-03-18T01:06:38;100952.0;;;26.93;22.26
48644;BME280;34928;37.302;-121.984;2023-03-18T01:16:42;100964.0;;;26.63;22.43
48644;BME280;34928;37.302;-121.984;2023-03-18T01:26:48;100980.0;;;26.47;23.00
48644;BME280;34928;37.302;-121.984;2023-03-18T01:36:52;100989.0;;;26.52;22.48
48644;BME280;34928;37.302;-121.984;2023-03-18T01:46:57;101008.0;;;26.13;22.91
48644;BME280;34928;37.302;-121.984;2023-03-18T01:57:03;101012.0;;;27.44;22.64
48644;BME280;34928;37.302;-121.984;2023-03-18T02:07:14;101025.0;;;27.57;22.71
48644;BME280;34928;37.302;-121.984;2023-03-18T02:17:21;101030.0;;;27.88;22.58
48644;BME280;34928;37.302;-121.984;2023-03-18T02:27:29;101038.0;;;27.69;23.18
48644;BME280;34928;37.302;-121.984;2023-03-18T02:37:38;101041.0;;;27.98;22.62
48644;BME280;34928;37.302;-121.984;2023-03-18T02:47:43;101052.0;;;28.31;22.92
48644;BME280;34928;37.302;-121.984;2023-03-18T02:57:52;101063.0;;;28.09;23.23
48644;BME280;34928;37.302;-121.984;2023-03-18T03:07:57;101068.0;;;28.03;23.21
48644;BME280;34928;37.302;-121.984;2023-03-18T03:18:02;101085.0;;;27.94;23.33
48644;BME280;34928;37.302;-121.984;2023-03-18T03:28:08;101095.0;;;27.95;23.31
48644;BME280;34928;37.302;-121.984;2023-03-18T03:38:12;101107.0;;;28.13;23.33
48644;BME280;34928;37.302;-121.984;2023-03-18T03:48:17;101116.0;;;27.87;23.25
48644;BME280;34928;37.302;-121.984;2023-03-18T03:58:23;101126.0;;;28.22;23.44
48644;BME280;34928;37.302;-121.984;2023-03-18T04:08:27;101146.0;;;28.06;23.49
48644;BME280;34928;37.302;-121.984;2023-03-18T04:50:44;101193.0;;;21.73;34.70
48644;BME280;34928;37.302;-121.984;2023-03-18T05:00:47;101196.0;;;25.13;27.84
48644;BME280;34928;37.302;-121.984;2023-03-18T05:10:52;101195.0;;;26.92;25.39
48644;BME280;34928;37.302;-121.984;2023-03-18T05:20:57;101190.0;;;26.98;24.71
48644;BME280;34928;37.302;-121.984;2023-03-18T05:31:03;101183.0;;;27.66;24.24
48644;BME280;34928;37.302;-121.984;2023-03-18T05:41:08;101196.0;;;27.99;24.03
48644;BME280;34928;37.302;-121.984;2023-03-18T05:51:14;101201.0;;;27.39;24.19
48644;BME280;34928;37.302;-121.984;2023-03-18T06:01:17;101191.0;;;27.40;23.97
48644;BME280;34928;37.302;-121.984;2023-03-18T06:11:22;101179.0;;;27.53;23.92
48644;BME280;34928;37.302;-121.984;2023-03-18T06:21:27;101181.0;;;27.79;23.64
48644;BME280;34928;37.302;-121.984;2023-03-18T06:31:33;101189.0;;;27.63;23.45
48644;BME280;34928;37.302;-121.984;2023-03-18T06:41:37;101183.0;;;27.69;23.28
48644;BME280;34928;37.302;-121.984;2023-03-18T06:51:42;101169.0;;;27.29;23.44
48644;BME280;34928;37.302;-121.984;2023-03-18T07:01:48;101177.0;;;26.90;23.59
48644;BME280;34928;37.302;-121.984;2023-03-18T07:11:52;101184.0;;;26.80;23.76
48644;BME280;34928;37.302;-121.984;2023-03-18T07:21:57;101197.0;;;27.21;23.52
48644;BME280;34928;37.302;-121.984;2023-03-18T07:32:02;101202.0;;;27.23;23.39
48644;BME280;34928;37.302;-121.984;2023-03-18T07:42:07;101208.0;;;27.18;23.31
48644;BME280;34928;37.302;-121.984;2023-03-18T07:52:13;101202.0;;;27.07;23.31
48644;BME280;34928;37.302;-121.984;2023-03-18T08:02:18;101202.0;;;26.91;23.34
48644;BME280;34928;37.302;-121.984;2023-03-18T08:12:22;101206.0;;;26.22;23.63
48644;BME280;34928;37.302;-121.984;2023-03-18T08:22:28;101202.0;;;25.91;23.84
48644;BME280;34928;37.302;-121.984;2023-03-18T08:32:32;101192.0;;;25.94;23.95
48644;BME280;34928;37.302;-121.984;2023-03-18T08:42:37;101177.0;;;25.66;24.05
48644;BME280;34928;37.302;-121.984;2023-03-18T08:52:42;101167.0;;;26.26;23.48
48644;BME280;34928;37.302;-121.984;2023-03-18T09:02:47;101152.0;;;26.92;23.05
48644;BME280;34928;37.302;-121.984;2023-03-18T09:12:52;101135.0;;;26.96;23.00
48644;BME280;34928;37.302;-121.984;2023-03-18T09:22:58;101123.0;;;26.88;23.02
48644;BME280;34928;37.302;-121.984;2023-03-18T09:33:03;101082.0;;;26.71;23.09
48644;BME280;34928;37.302;-121.984;2023-03-18T09:43:24;101059.0;;;26.56;23.11
48644;BME280;34928;37.302;-121.984;2023-03-18T09:53:40;101042.0;;;26.72;23.11
48644;BME280;34928;37.302;-121.984;2023-03-18T10:03:50;101042.0;;;26.60;23.08
48644;BME280;34928;37.302;-121.984;2023-03-18T10:14:15;101044.0;;;25.34;23.29
48644;BME280;34928;37.302;-121.984;2023-03-18T10:24:29;101049.0;;;26.87;22.88
48644;BME280;34928;37.302;-121.984;2023-03-18T10:34:44;101054.0;;;26.51;22.87
48644;BME280;34928;37.302;-121.984;2023-03-18T10:44:47;101058.0;;;26.52;23.03
48644;BME280;34928;37.302;-121.984;2023-03-18T10:54:53;101050.0;;;26.50;23.13
48644;BME280;34928;37.302;-121.984;2023-03-18T11:05:00;101048.0;;;25.81;23.30
48644;BME280;34928;37.302;-121.984;2023-03-18T11:15:11;101046.0;;;25.28;23.52
48644;BME280;34928;37.302;-121.984;2023-03-18T11:25:19;101060.0;;;25.82;23.38
48644;BME280;34928;37.302;-121.984;2023-03-18T11:35:24;101079.0;;;25.49;23.29
48644;BME280;34928;37.302;-121.984;2023-03-18T11:45:45;101080.0;;;25.79;23.28
48644;BME280;34928;37.302;-121.984;2023-03-18T11:55:55;101079.0;;;25.11;23.31
48644;BME280;34928;37.302;-121.984;2023-03-18T12:06:10;101079.0;;;25.02;23.53
48644;BME280;34928;37.302;-121.984;2023-03-18T12:16:27;101083.0;;;24.86;23.58
48644;BME280;34928;37.302;-121.984;2023-03-18T12:26:43;101078.0;;;24.50;23.72
48644;BME280;34928;37.302;-121.984;2023-03-18T12:37:03;101062.0;;;24.56;23.76
48644;BME280;34928;37.302;-121.984;2023-03-18T12:47:17;101070.0;;;24.54;23.30
48644;BME280;34928;37.302;-121.984;2023-03-18T12:57:39;101060.0;;;25.78;23.54
48644;BME280;34928;37.302;-121.984;2023-03-18T13:07:45;101071.0;;;25.65;23.56
48644;BME280;34928;37.302;-121.984;2023-03-18T13:17:56;101058.0;;;26.42;23.49
48644;BME280;34928;37.302;-121.984;2023-03-18T13:28:21;101051.0;;;26.23;23.28
48644;BME280;34928;37.302;-121.984;2023-03-18T13:38:47;101044.0;;;26.47;22.75
48644;BME280;34928;37.302;-121.984;2023-03-18T13:48:55;101044.0;;;26.45;23.13
48644;BME280;34928;37.302;-121.984;2023-03-18T13:59:03;101031.0;;;27.01;22.93
48644;BME280;34928;37.302;-121.984;2023-03-18T14:09:34;101025.0;;;26.35;22.44
48644;BME280;34928;37.302;-121.984;2023-03-18T14:19:48;101008.0;;;27.05;22.61
48644;BME280;34928;37.302;-121.984;2023-03-18T14:40:17;101013.0;;;26.97;22.29
48644;BME280;34928;37.302;-121.984;2023-03-18T14:50:33;101024.0;;;27.57;22.06
48644;BME280;34928;37.302;-121.984;2023-03-18T15:00:38;101021.0;;;27.02;22.14
48644;BME280;34928;37.302;-121.984;2023-03-18T15:10:44;101015.0;;;26.88;21.70
48644;BME280;34928;37.302;-121.984;2023-03-18T15:20:50;101024.0;;;26.91;21.84
48644;BME280;34928;37.302;-121.984;2023-03-18T15:30:59;101011.0;;;26.43;21.90
48644;BME280;34928;37.302;-121.984;2023-03-18T15:41:04;100993.0;;;26.52;22.03
48644;BME280;34928;37.302;-121.984;2023-03-18T15:51:21;100995.0;;;26.63;21.97
48644;BME280;34928;37.302;-121.984;2023-03-18T16:01:35;100986.0;;;26.24;22.29
48644;BME280;34928;37.302;-121.984;2023-03-18T16:11:43;100986.0;;;26.06;22.45
48644;BME280;34928;37.302;-121.984;2023-03-18T16:21:47;100980.0;;;25.86;22.66
48644;BME280;34928;37.302;-121.984;2023-03-18T16:31:53;100982.0;;;25.34;23.89
48644;BME280;34928;37.302;-121.984;2023-03-18T16:41:57;100973.0;;;25.66;23.84
48644;BME280;34928;37.302;-121.984;2023-03-18T16:52:02;100951.0;;;25.64;23.50
48644;BME280;34928;37.302;-121.984;2023-03-18T17:02:24;100945.0;;;25.79;23.30
48644;BME280;34928;37.302;-121.984;2023-03-18T17:12:32;100931.0;;;25.68;23.36
48644;BME280;34928;37.302;-121.984;2023-03-18T17:22:37;100923.0;;;25.69;23.37
48644;BME280;34928;37.302;-121.984;2023-03-18T17:32:43;100930.0;;;25.91;23.19
48644;BME280;34928;37.302;-121.984;2023-03-18T17:42:49;100950.0;;;26.03;23.17
48644;BME280;34928;37.302;-121.984;2023-03-18T17:52:53;100960.0;;;26.08;23.25
48644;BME280;34928;37.302;-121.984;2023-03-18T18:02:57;100970.0;;;26.75;23.00
48644;BME280;34928;37.302;-121.984;2023-03-18T18:13:05;100955.0;;;27.00;22.90
48644;BME280;34928;37.302;-121.984;2023-03-18T18:23:22;100946.0;;;27.06;22.91
48644;BME280;34928;37.302;-121.984;2023-03-18T18:33:28;100941.0;;;27.14;22.93
48644;BME280;34928;37.302;-121.984;2023-03-18T18:43:32;100937.0;;;27.22;22.94
48644;BME280;34928;37.302;-121.984;2023-03-18T18:53:37;100926.0;;;27.22;23.02
48644;BME280;34928;37.302;-121.984;2023-03-18T19:03:42;100934.0;;;27.26;23.06
48644;BME280;34928;37.302;-121.984;2023-03-18T19:13:47;100916.0;;;27.00;23.16
48644;BME280;34928;37.302;-121.984;2023-03-18T19:23:53;100922.0;;;27.32;23.15
48644;BME280;34928;37.302;-121.984;2023-03-18T19:33:59;100909.0;;;27.38;23.19
48644;BME280;34928;37.302;-121.984;2023-03-18T19:44:13;100903.0;;;27.32;23.13
48644;BME280;34928;37.302;-121.984;2023-03-18T19:54:26;100908.0;;;27.55;23.16
48644;BME280;34928;37.302;-121.984;2023-03-18T20:04:32;100911.0;;;27.10;23.20
48644;BME280;34928;37.302;-121.984;2023-03-18T20:14:37;100917.0;;;27.65;23.22
48644;BME280;34928;37.302;-121.984;2023-03-18T20:24:42;100907.0;;;27.66;23.29
48644;BME280;34928;37.302;-121.984;2023-03-18T20:34:47;100892.0;;;27.18;23.83
48644;BME280;34928;37.302;-121.984;2023-03-18T20:44:53;100884.0;;;26.94;23.66
48644;BME280;34928;37.302;-121.984;2023-03-18T20:55:04;100857.0;;;27.58;22.99
48644;BME280;34928;37.302;-121.984;2023-03-18T21:05:10;100833.0;;;27.65;22.75
48644;BME280;34928;37.302;-121.984;2023-03-18T21:15:20;100819.0;;;27.54;22.51
48644;BME280;34928;37.302;-121.984;2023-03-18T21:25:28;100798.0;;;27.83;22.24
48644;BME280;34928;37.302;-121.984;2023-03-18T21:35:32;100776.0;;;27.86;22.37
48644;BME280;34928;37.302;-121.984;2023-03-18T21:45:37;100765.0;;;27.61;22.27
48644;BME280;34928;37.302;-121.984;2023-03-18T21:55:43;100747.0;;;27.69;22.22
48644;BME280;34928;37.302;-121.984;2023-03-18T22:05:47;100732.0;;;27.69;22.20
48644;BME280;34928;37.302;-121.984;2023-03-18T22:15:53;100713.0;;;28.01;21.91
48644;BME280;34928;37.302;-121.984;2023-03-18T22:25:57;100705.0;;;27.51;22.31
48644;BME280;34928;37.302;-121.984;2023-03-18T22:36:02;100691.0;;;28.02;22.05
48644;BME280;34928;37.302;-121.984;2023-03-18T22:46:08;100684.0;;;28.25;22.08
48644;BME280;34928;37.302;-121.984;2023-03-18T22:56:21;100687.0;;;28.03;22.34
48644;BME280;34928;37.302;-121.984;2023-03-18T23:06:28;100680.0;;;27.78;22.48
48644;BME280;34928;37.302;-121.984;2023-03-18T23:16:33;100700.0;;;27.49;23.20
48644;BME280;34928;37.302;-121.984;2023-03-18T23:26:42;100695.0;;;28.10;22.92
48644;BME280;34928;37.302;-121.984;2023-03-18T23:36:49;100697.0;;;28.45;23.16
48644;BME280;34928;37.302;-121.984;2023-03-18T23:46:53;100696.0;;;28.45;23.38
48644;BME280;34928;37.302;-121.984;2023-03-18T23:56:57;100687.0;;;28.10;23.49
